sensor_id;sensor_type;location;lat;lon;timestamp;P1;durP1;ratioP1;P2;durP2;ratioP2
84820;SDS011;75463;50.988;11.332;2024-01-30T00:01:52;10.57;;;6.05;;
84820;SDS011;75463;50.988;11.332;2024-01-30T00:04:17;6.53;;;4.55;;
84820;SDS011;75463;50.988;11.332;2024-01-30T00:06:43;6.40;;;5.07;;
84820;SDS011;75463;50.988;11.332;2024-01-30T00:09:09;6.72;;;4.45;;
84820;SDS011;75463;50.988;11.332;2024-01-30T00:11:35;9.40;;;4.72;;
84820;SDS011;75463;50.988;11.332;2024-01-30T00:14:01;7.70;;;4.38;;
84820;SDS011;75463;50.988;11.332;2024-01-30T00:16:28;7.05;;;4.85;;
84820;SDS011;75463;50.988;11.332;2024-01-30T00:18:53;7.22;;;5.50;;
84820;SDS011;75463;50.988;11.332;2024-01-30T00:21:19;7.70;;;4.70;;
84820;SDS011;75463;50.988;11.332;2024-01-30T00:23:45;6.55;;;4.65;;
84820;SDS011;75463;50.988;11.332;2024-01-30T00:26:10;5.95;;;4.30;;
84820;SDS011;75463;50.988;11.332;2024-01-30T00:28:36;8.70;;;4.85;;
84820;SDS011;75463;50.988;11.332;2024-01-30T00:31:04;5.82;;;4.45;;
84820;SDS011;75463;50.988;11.332;2024-01-30T00:33:30;6.50;;;3.85;;
84820;SDS011;75463;50.988;11.332;2024-01-30T00:35:55;8.00;;;4.57;;
84820;SDS011;75463;50.988;11.332;2024-01-30T00:38:21;9.25;;;4.50;;
84820;SDS011;75463;50.988;11.332;2024-01-30T00:40:47;6.80;;;4.75;;
84820;SDS011;75463;50.988;11.332;2024-01-30T00:43:13;7.18;;;4.82;;
84820;SDS011;75463;50.988;11.332;2024-01-30T00:45:38;6.53;;;4.20;;
84820;SDS011;75463;50.988;11.332;2024-01-30T00:48:03;6.78;;;4.38;;
84820;SDS011;75463;50.988;11.332;2024-01-30T00:50:29;6.60;;;4.88;;
84820;SDS011;75463;50.988;11.332;2024-01-30T00:52:54;7.57;;;4.70;;
84820;SDS011;75463;50.988;11.332;2024-01-30T00:55:19;7.35;;;4.90;;
84820;SDS011;75463;50.988;11.332;2024-01-30T00:57:45;10.45;;;4.53;;
84820;SDS011;75463;50.988;11.332;2024-01-30T01:00:10;6.85;;;4.13;;
84820;SDS011;75463;50.988;11.332;2024-01-30T01:02:37;6.28;;;4.35;;
84820;SDS011;75463;50.988;11.332;2024-01-30T01:05:04;6.72;;;4.90;;
84820;SDS011;75463;50.988;11.332;2024-01-30T01:07:30;5.40;;;3.85;;
84820;SDS011;75463;50.988;11.332;2024-01-30T01:09:55;6.80;;;4.95;;
84820;SDS011;75463;50.988;11.332;2024-01-30T01:12:20;8.32;;;5.55;;
84820;SDS011;75463;50.988;11.332;2024-01-30T01:14:46;6.32;;;4.47;;
84820;SDS011;75463;50.988;11.332;2024-01-30T01:17:11;6.63;;;4.22;;
84820;SDS011;75463;50.988;11.332;2024-01-30T01:19:37;7.32;;;4.18;;
84820;SDS011;75463;50.988;11.332;2024-01-30T01:22:02;5.97;;;3.97;;
84820;SDS011;75463;50.988;11.332;2024-01-30T01:24:28;5.90;;;4.53;;
84820;SDS011;75463;50.988;11.332;2024-01-30T01:26:55;6.43;;;3.95;;
84820;SDS011;75463;50.988;11.332;2024-01-30T01:29:22;5.82;;;4.47;;
84820;SDS011;75463;50.988;11.332;2024-01-30T01:31:53;13.20;;;3.97;;
84820;SDS011;75463;50.988;11.332;2024-01-30T01:34:18;7.47;;;4.32;;
84820;SDS011;75463;50.988;11.332;2024-01-30T01:36:44;6.03;;;4.30;;
84820;SDS011;75463;50.988;11.332;2024-01-30T01:39:09;8.50;;;4.22;;
84820;SDS011;75463;50.988;11.332;2024-01-30T01:41:35;6.15;;;4.70;;
84820;SDS011;75463;50.988;11.332;2024-01-30T01:44:01;5.28;;;3.88;;
84820;SDS011;75463;50.988;11.332;2024-01-30T01:46:27;8.23;;;4.45;;
84820;SDS011;75463;50.988;11.332;2024-01-30T01:48:54;6.95;;;4.50;;
84820;SDS011;75463;50.988;11.332;2024-01-30T01:51:21;5.72;;;4.57;;
84820;SDS011;75463;50.988;11.332;2024-01-30T01:53:47;6.60;;;3.55;;
84820;SDS011;75463;50.988;11.332;2024-01-30T01:56:13;6.05;;;4.07;;
84820;SDS011;75463;50.988;11.332;2024-01-30T01:58:39;5.22;;;4.18;;
84820;SDS011;75463;50.988;11.332;2024-01-30T02:01:06;6.63;;;4.20;;
84820;SDS011;75463;50.988;11.332;2024-01-30T02:03:33;6.80;;;3.97;;
84820;SDS011;75463;50.988;11.332;2024-01-30T02:05:59;7.43;;;4.80;;
84820;SDS011;75463;50.988;11.332;2024-01-30T02:08:24;7.72;;;4.60;;
84820;SDS011;75463;50.988;11.332;2024-01-30T02:10:51;7.45;;;5.45;;
84820;SDS011;75463;50.988;11.332;2024-01-30T02:13:16;6.03;;;4.00;;
84820;SDS011;75463;50.988;11.332;2024-01-30T02:15:41;7.90;;;4.15;;
84820;SDS011;75463;50.988;11.332;2024-01-30T02:18:07;5.27;;;3.70;;
84820;SDS011;75463;50.988;11.332;2024-01-30T02:20:32;6.25;;;4.30;;
84820;SDS011;75463;50.988;11.332;2024-01-30T02:23:00;6.60;;;3.78;;
84820;SDS011;75463;50.988;11.332;2024-01-30T02:25:36;5.25;;;4.25;;
84820;SDS011;75463;50.988;11.332;2024-01-30T02:28:03;6.72;;;4.55;;
84820;SDS011;75463;50.988;11.332;2024-01-30T02:30:29;7.82;;;4.22;;
84820;SDS011;75463;50.988;11.332;2024-01-30T02:32:54;5.28;;;3.72;;
84820;SDS011;75463;50.988;11.332;2024-01-30T02:35:20;5.35;;;3.83;;
84820;SDS011;75463;50.988;11.332;2024-01-30T02:37:45;7.18;;;4.15;;
84820;SDS011;75463;50.988;11.332;2024-01-30T02:40:10;7.50;;;3.60;;
84820;SDS011;75463;50.988;11.332;2024-01-30T02:42:35;5.70;;;4.07;;
84820;SDS011;75463;50.988;11.332;2024-01-30T02:45:01;6.43;;;3.97;;
84820;SDS011;75463;50.988;11.332;2024-01-30T02:47:26;7.15;;;3.83;;
84820;SDS011;75463;50.988;11.332;2024-01-30T02:49:51;5.95;;;3.90;;
84820;SDS011;75463;50.988;11.332;2024-01-30T02:52:17;15.35;;;4.80;;
84820;SDS011;75463;50.988;11.332;2024-01-30T02:54:42;5.40;;;4.00;;
84820;SDS011;75463;50.988;11.332;2024-01-30T02:57:07;5.63;;;3.83;;
84820;SDS011;75463;50.988;11.332;2024-01-30T02:59:33;6.43;;;4.07;;
84820;SDS011;75463;50.988;11.332;2024-01-30T03:02:00;6.47;;;3.75;;
84820;SDS011;75463;50.988;11.332;2024-01-30T03:04:26;5.57;;;5.00;;
84820;SDS011;75463;50.988;11.332;2024-01-30T03:06:51;6.97;;;3.70;;
84820;SDS011;75463;50.988;11.332;2024-01-30T03:09:16;5.80;;;3.70;;
84820;SDS011;75463;50.988;11.332;2024-01-30T03:11:42;8.02;;;5.00;;
84820;SDS011;75463;50.988;11.332;2024-01-30T03:14:08;5.70;;;4.03;;
84820;SDS011;75463;50.988;11.332;2024-01-30T03:16:35;5.75;;;4.45;;
84820;SDS011;75463;50.988;11.332;2024-01-30T03:19:01;6.55;;;4.70;;
84820;SDS011;75463;50.988;11.332;2024-01-30T03:21:28;4.47;;;3.53;;
84820;SDS011;75463;50.988;11.332;2024-01-30T03:23:54;6.68;;;3.88;;
84820;SDS011;75463;50.988;11.332;2024-01-30T03:26:19;6.15;;;3.83;;
84820;SDS011;75463;50.988;11.332;2024-01-30T03:28:44;5.00;;;3.90;;
84820;SDS011;75463;50.988;11.332;2024-01-30T03:31:09;7.30;;;4.63;;
84820;SDS011;75463;50.988;11.332;2024-01-30T03:33:36;6.88;;;4.32;;
84820;SDS011;75463;50.988;11.332;2024-01-30T03:36:04;6.53;;;3.50;;
84820;SDS011;75463;50.988;11.332;2024-01-30T03:38:30;4.78;;;3.38;;
84820;SDS011;75463;50.988;11.332;2024-01-30T03:40:57;5.70;;;3.95;;
84820;SDS011;75463;50.988;11.332;2024-01-30T03:43:23;5.72;;;3.88;;
84820;SDS011;75463;50.988;11.332;2024-01-30T03:45:48;6.47;;;4.25;;
84820;SDS011;75463;50.988;11.332;2024-01-30T03:48:14;8.60;;;4.53;;
84820;SDS011;75463;50.988;11.332;2024-01-30T03:50:39;7.45;;;4.43;;
84820;SDS011;75463;50.988;11.332;2024-01-30T03:53:04;5.83;;;4.17;;
84820;SDS011;75463;50.988;11.332;2024-01-30T03:55:30;7.87;;;5.00;;
84820;SDS011;75463;50.988;11.332;2024-01-30T03:57:55;7.38;;;4.50;;
84820;SDS011;75463;50.988;11.332;2024-01-30T04:00:20;7.33;;;4.43;;
84820;SDS011;75463;50.988;11.332;2024-01-30T04:02:45;6.60;;;4.55;;
84820;SDS011;75463;50.988;11.332;2024-01-30T04:05:11;7.18;;;4.30;;
84820;SDS011;75463;50.988;11.332;2024-01-30T04:07:36;6.05;;;4.10;;
84820;SDS011;75463;50.988;11.332;2024-01-30T04:10:02;5.63;;;4.20;;
84820;SDS011;75463;50.988;11.332;2024-01-30T04:12:30;7.38;;;4.00;;
84820;SDS011;75463;50.988;11.332;2024-01-30T04:14:56;6.18;;;4.03;;
84820;SDS011;75463;50.988;11.332;2024-01-30T04:17:21;10.33;;;4.73;;
84820;SDS011;75463;50.988;11.332;2024-01-30T04:19:46;8.25;;;4.80;;
84820;SDS011;75463;50.988;11.332;2024-01-30T04:22:12;6.72;;;4.30;;
84820;SDS011;75463;50.988;11.332;2024-01-30T04:24:37;8.48;;;4.78;;
84820;SDS011;75463;50.988;11.332;2024-01-30T04:27:02;7.68;;;4.63;;
84820;SDS011;75463;50.988;11.332;2024-01-30T04:29:28;9.07;;;5.50;;
84820;SDS011;75463;50.988;11.332;2024-01-30T04:31:53;8.18;;;5.07;;
84820;SDS011;75463;50.988;11.332;2024-01-30T04:34:18;6.53;;;4.30;;
84820;SDS011;75463;50.988;11.332;2024-01-30T04:36:44;6.63;;;4.60;;
84820;SDS011;75463;50.988;11.332;2024-01-30T04:39:10;7.22;;;4.35;;
84820;SDS011;75463;50.988;11.332;2024-01-30T04:41:35;7.80;;;4.73;;
84820;SDS011;75463;50.988;11.332;2024-01-30T04:44:01;6.63;;;4.68;;
84820;SDS011;75463;50.988;11.332;2024-01-30T04:46:26;7.00;;;5.05;;
84820;SDS011;75463;50.988;11.332;2024-01-30T04:48:51;7.28;;;4.68;;
84820;SDS011;75463;50.988;11.332;2024-01-30T04:51:17;8.38;;;4.85;;
84820;SDS011;75463;50.988;11.332;2024-01-30T04:53:42;6.85;;;4.45;;
84820;SDS011;75463;50.988;11.332;2024-01-30T04:56:07;8.05;;;5.00;;
84820;SDS011;75463;50.988;11.332;2024-01-30T04:58:32;6.38;;;4.82;;
84820;SDS011;75463;50.988;11.332;2024-01-30T05:00:58;6.35;;;4.38;;
84820;SDS011;75463;50.988;11.332;2024-01-30T05:03:23;5.53;;;3.83;;
84820;SDS011;75463;50.988;11.332;2024-01-30T05:05:49;7.35;;;4.22;;
84820;SDS011;75463;50.988;11.332;2024-01-30T05:08:14;6.80;;;4.38;;
84820;SDS011;75463;50.988;11.332;2024-01-30T05:10:40;7.93;;;4.90;;
84820;SDS011;75463;50.988;11.332;2024-01-30T05:13:05;7.70;;;4.57;;
84820;SDS011;75463;50.988;11.332;2024-01-30T05:15:30;6.60;;;4.28;;
84820;SDS011;75463;50.988;11.332;2024-01-30T05:17:56;8.68;;;4.50;;
84820;SDS011;75463;50.988;11.332;2024-01-30T05:20:21;7.53;;;4.60;;
84820;SDS011;75463;50.988;11.332;2024-01-30T05:22:46;6.30;;;4.32;;
84820;SDS011;75463;50.988;11.332;2024-01-30T05:25:12;6.28;;;3.85;;
84820;SDS011;75463;50.988;11.332;2024-01-30T05:27:38;7.80;;;4.75;;
84820;SDS011;75463;50.988;11.332;2024-01-30T05:30:04;7.70;;;3.85;;
84820;SDS011;75463;50.988;11.332;2024-01-30T05:32:33;7.50;;;4.78;;
84820;SDS011;75463;50.988;11.332;2024-01-30T05:34:58;6.60;;;4.90;;
84820;SDS011;75463;50.988;11.332;2024-01-30T05:37:23;6.13;;;4.05;;
84820;SDS011;75463;50.988;11.332;2024-01-30T05:39:49;7.03;;;4.70;;
84820;SDS011;75463;50.988;11.332;2024-01-30T05:42:14;6.20;;;5.10;;
84820;SDS011;75463;50.988;11.332;2024-01-30T05:44:41;6.72;;;5.32;;
84820;SDS011;75463;50.988;11.332;2024-01-30T05:47:07;6.65;;;5.05;;
84820;SDS011;75463;50.988;11.332;2024-01-30T05:49:32;6.80;;;4.80;;
84820;SDS011;75463;50.988;11.332;2024-01-30T05:51:58;8.50;;;4.72;;
84820;SDS011;75463;50.988;11.332;2024-01-30T05:54:23;9.85;;;5.97;;
84820;SDS011;75463;50.988;11.332;2024-01-30T05:56:48;7.85;;;5.10;;
84820;SDS011;75463;50.988;11.332;2024-01-30T05:59:13;9.52;;;4.80;;
84820;SDS011;75463;50.988;11.332;2024-01-30T06:01:45;7.20;;;5.03;;
84820;SDS011;75463;50.988;11.332;2024-01-30T06:04:11;8.70;;;5.15;;
84820;SDS011;75463;50.988;11.332;2024-01-30T06:06:36;6.57;;;4.70;;
84820;SDS011;75463;50.988;11.332;2024-01-30T06:09:02;7.93;;;4.40;;
84820;SDS011;75463;50.988;11.332;2024-01-30T06:11:27;10.05;;;5.00;;
84820;SDS011;75463;50.988;11.332;2024-01-30T06:13:52;7.53;;;4.88;;
84820;SDS011;75463;50.988;11.332;2024-01-30T06:16:18;8.05;;;5.10;;
84820;SDS011;75463;50.988;11.332;2024-01-30T06:18:45;9.25;;;5.15;;
84820;SDS011;75463;50.988;11.332;2024-01-30T06:21:11;6.72;;;4.85;;
84820;SDS011;75463;50.988;11.332;2024-01-30T06:23:36;8.32;;;4.90;;
84820;SDS011;75463;50.988;11.332;2024-01-30T06:26:02;9.25;;;4.80;;
84820;SDS011;75463;50.988;11.332;2024-01-30T06:28:27;8.18;;;5.28;;
84820;SDS011;75463;50.988;11.332;2024-01-30T06:30:52;8.55;;;5.00;;
84820;SDS011;75463;50.988;11.332;2024-01-30T06:33:18;6.50;;;4.70;;
84820;SDS011;75463;50.988;11.332;2024-01-30T06:35:43;7.67;;;5.60;;
84820;SDS011;75463;50.988;11.332;2024-01-30T06:38:10;6.82;;;5.05;;
84820;SDS011;75463;50.988;11.332;2024-01-30T06:40:36;6.03;;;4.97;;
84820;SDS011;75463;50.988;11.332;2024-01-30T06:43:02;8.82;;;5.43;;
84820;SDS011;75463;50.988;11.332;2024-01-30T06:45:29;10.75;;;6.00;;
84820;SDS011;75463;50.988;11.332;2024-01-30T06:47:54;9.13;;;5.03;;
84820;SDS011;75463;50.988;11.332;2024-01-30T06:50:19;11.50;;;5.47;;
84820;SDS011;75463;50.988;11.332;2024-01-30T06:52:45;8.00;;;5.93;;
84820;SDS011;75463;50.988;11.332;2024-01-30T06:55:10;11.23;;;6.28;;
84820;SDS011;75463;50.988;11.332;2024-01-30T06:57:36;8.73;;;5.75;;
84820;SDS011;75463;50.988;11.332;2024-01-30T07:00:01;10.43;;;5.80;;
84820;SDS011;75463;50.988;11.332;2024-01-30T07:02:27;9.32;;;5.90;;
84820;SDS011;75463;50.988;11.332;2024-01-30T07:04:52;15.93;;;6.20;;
84820;SDS011;75463;50.988;11.332;2024-01-30T07:07:18;7.70;;;5.35;;
84820;SDS011;75463;50.988;11.332;2024-01-30T07:09:43;8.98;;;6.57;;
84820;SDS011;75463;50.988;11.332;2024-01-30T07:12:08;9.50;;;6.38;;
84820;SDS011;75463;50.988;11.332;2024-01-30T07:14:34;11.45;;;7.15;;
84820;SDS011;75463;50.988;11.332;2024-01-30T07:16:59;9.77;;;6.82;;
84820;SDS011;75463;50.988;11.332;2024-01-30T07:19:24;12.38;;;5.43;;
84820;SDS011;75463;50.988;11.332;2024-01-30T07:21:50;12.32;;;6.15;;
84820;SDS011;75463;50.988;11.332;2024-01-30T07:24:15;12.27;;;6.83;;
84820;SDS011;75463;50.988;11.332;2024-01-30T07:26:40;8.27;;;5.68;;
84820;SDS011;75463;50.988;11.332;2024-01-30T07:29:06;9.45;;;6.82;;
84820;SDS011;75463;50.988;11.332;2024-01-30T07:31:31;9.35;;;7.00;;
84820;SDS011;75463;50.988;11.332;2024-01-30T07:33:56;11.82;;;6.28;;
84820;SDS011;75463;50.988;11.332;2024-01-30T07:36:22;9.55;;;6.70;;
84820;SDS011;75463;50.988;11.332;2024-01-30T07:38:47;11.55;;;6.25;;
84820;SDS011;75463;50.988;11.332;2024-01-30T07:43:41;9.33;;;5.77;;
84820;SDS011;75463;50.988;11.332;2024-01-30T07:46:06;9.20;;;5.78;;
84820;SDS011;75463;50.988;11.332;2024-01-30T07:48:32;8.60;;;5.80;;
84820;SDS011;75463;50.988;11.332;2024-01-30T07:50:59;8.80;;;5.97;;
84820;SDS011;75463;50.988;11.332;2024-01-30T07:53:24;9.30;;;5.63;;
84820;SDS011;75463;50.988;11.332;2024-01-30T07:55:50;7.85;;;6.10;;
84820;SDS011;75463;50.988;11.332;2024-01-30T07:58:15;11.02;;;5.35;;
84820;SDS011;75463;50.988;11.332;2024-01-30T08:00:40;8.88;;;5.32;;
84820;SDS011;75463;50.988;11.332;2024-01-30T08:03:06;8.18;;;5.75;;
84820;SDS011;75463;50.988;11.332;2024-01-30T08:05:31;9.60;;;5.53;;
84820;SDS011;75463;50.988;11.332;2024-01-30T08:07:57;8.87;;;4.93;;
84820;SDS011;75463;50.988;11.332;2024-01-30T08:10:22;6.22;;;5.10;;
84820;SDS011;75463;50.988;11.332;2024-01-30T08:12:47;6.53;;;5.00;;
84820;SDS011;75463;50.988;11.332;2024-01-30T08:15:16;8.90;;;4.88;;
84820;SDS011;75463;50.988;11.332;2024-01-30T08:17:41;8.48;;;5.15;;
84820;SDS011;75463;50.988;11.332;2024-01-30T08:20:06;7.43;;;4.53;;
84820;SDS011;75463;50.988;11.332;2024-01-30T08:22:33;9.50;;;4.93;;
84820;SDS011;75463;50.988;11.332;2024-01-30T08:24:58;6.80;;;5.05;;
84820;SDS011;75463;50.988;11.332;2024-01-30T08:27:24;10.02;;;5.20;;
84820;SDS011;75463;50.988;11.332;2024-01-30T08:29:49;5.43;;;4.13;;
84820;SDS011;75463;50.988;11.332;2024-01-30T08:32:15;6.05;;;4.30;;
84820;SDS011;75463;50.988;11.332;2024-01-30T08:34:40;5.50;;;3.92;;
84820;SDS011;75463;50.988;11.332;2024-01-30T08:37:06;6.73;;;4.50;;
84820;SDS011;75463;50.988;11.332;2024-01-30T08:39:31;10.50;;;5.25;;
84820;SDS011;75463;50.988;11.332;2024-01-30T08:41:56;10.00;;;5.22;;
84820;SDS011;75463;50.988;11.332;2024-01-30T08:44:22;9.82;;;5.57;;
84820;SDS011;75463;50.988;11.332;2024-01-30T08:46:47;9.40;;;5.13;;
84820;SDS011;75463;50.988;11.332;2024-01-30T08:49:13;10.73;;;5.43;;
84820;SDS011;75463;50.988;11.332;2024-01-30T08:51:41;10.68;;;6.30;;
84820;SDS011;75463;50.988;11.332;2024-01-30T08:54:06;12.15;;;7.13;;
84820;SDS011;75463;50.988;11.332;2024-01-30T08:56:32;9.40;;;6.50;;
84820;SDS011;75463;50.988;11.332;2024-01-30T08:58:57;9.48;;;6.10;;
84820;SDS011;75463;50.988;11.332;2024-01-30T09:01:23;9.37;;;6.80;;
84820;SDS011;75463;50.988;11.332;2024-01-30T09:03:48;8.68;;;6.30;;
84820;SDS011;75463;50.988;11.332;2024-01-30T09:06:13;9.48;;;6.00;;
84820;SDS011;75463;50.988;11.332;2024-01-30T09:08:39;7.13;;;5.63;;
84820;SDS011;75463;50.988;11.332;2024-01-30T09:11:14;10.38;;;5.38;;
84820;SDS011;75463;50.988;11.332;2024-01-30T09:13:40;10.20;;;6.18;;
84820;SDS011;75463;50.988;11.332;2024-01-30T09:16:06;11.95;;;5.93;;
84820;SDS011;75463;50.988;11.332;2024-01-30T09:18:32;10.88;;;6.60;;
84820;SDS011;75463;50.988;11.332;2024-01-30T09:20:57;11.70;;;6.72;;
84820;SDS011;75463;50.988;11.332;2024-01-30T09:23:22;39.35;;;7.63;;
84820;SDS011;75463;50.988;11.332;2024-01-30T09:25:48;12.65;;;7.53;;
84820;SDS011;75463;50.988;11.332;2024-01-30T09:28:13;10.77;;;7.18;;
84820;SDS011;75463;50.988;11.332;2024-01-30T09:30:39;9.63;;;7.13;;
84820;SDS011;75463;50.988;11.332;2024-01-30T09:33:05;21.23;;;8.75;;
84820;SDS011;75463;50.988;11.332;2024-01-30T09:35:31;14.55;;;7.13;;
84820;SDS011;75463;50.988;11.332;2024-01-30T09:37:57;9.88;;;7.70;;
84820;SDS011;75463;50.988;11.332;2024-01-30T09:40:22;13.30;;;8.25;;
84820;SDS011;75463;50.988;11.332;2024-01-30T09:42:48;11.02;;;7.03;;
84820;SDS011;75463;50.988;11.332;2024-01-30T09:45:15;10.05;;;7.43;;
84820;SDS011;75463;50.988;11.332;2024-01-30T09:47:44;12.00;;;7.05;;
84820;SDS011;75463;50.988;11.332;2024-01-30T09:50:10;9.07;;;6.70;;
84820;SDS011;75463;50.988;11.332;2024-01-30T09:52:37;9.95;;;6.15;;
84820;SDS011;75463;50.988;11.332;2024-01-30T09:55:02;10.98;;;6.72;;
84820;SDS011;75463;50.988;11.332;2024-01-30T09:57:28;12.40;;;5.85;;
84820;SDS011;75463;50.988;11.332;2024-01-30T09:59:54;7.10;;;6.22;;
84820;SDS011;75463;50.988;11.332;2024-01-30T10:02:20;11.15;;;6.50;;
84820;SDS011;75463;50.988;11.332;2024-01-30T10:04:49;8.32;;;5.20;;
84820;SDS011;75463;50.988;11.332;2024-01-30T10:07:18;8.10;;;5.30;;
84820;SDS011;75463;50.988;11.332;2024-01-30T10:09:45;6.82;;;4.80;;
84820;SDS011;75463;50.988;11.332;2024-01-30T10:12:11;9.98;;;5.43;;
84820;SDS011;75463;50.988;11.332;2024-01-30T10:14:39;7.03;;;4.53;;
84820;SDS011;75463;50.988;11.332;2024-01-30T10:17:06;5.93;;;4.32;;
84820;SDS011;75463;50.988;11.332;2024-01-30T10:19:33;10.27;;;5.88;;
84820;SDS011;75463;50.988;11.332;2024-01-30T10:21:59;8.50;;;5.30;;
84820;SDS011;75463;50.988;11.332;2024-01-30T10:24:25;8.15;;;5.30;;
84820;SDS011;75463;50.988;11.332;2024-01-30T10:26:51;6.28;;;5.20;;
84820;SDS011;75463;50.988;11.332;2024-01-30T10:29:18;6.82;;;4.90;;
84820;SDS011;75463;50.988;11.332;2024-01-30T10:31:43;7.93;;;4.97;;
84820;SDS011;75463;50.988;11.332;2024-01-30T10:34:08;7.00;;;5.15;;
84820;SDS011;75463;50.988;11.332;2024-01-30T10:36:36;7.43;;;5.22;;
84820;SDS011;75463;50.988;11.332;2024-01-30T10:39:06;10.20;;;6.13;;
84820;SDS011;75463;50.988;11.332;2024-01-30T10:41:32;8.60;;;5.65;;
84820;SDS011;75463;50.988;11.332;2024-01-30T10:44:09;8.65;;;5.53;;
84820;SDS011;75463;50.988;11.332;2024-01-30T10:46:37;10.88;;;5.45;;
84820;SDS011;75463;50.988;11.332;2024-01-30T10:49:04;6.70;;;5.03;;
84820;SDS011;75463;50.988;11.332;2024-01-30T10:51:31;7.55;;;4.90;;
84820;SDS011;75463;50.988;11.332;2024-01-30T10:53:57;8.43;;;4.88;;
84820;SDS011;75463;50.988;11.332;2024-01-30T10:56:23;7.88;;;4.85;;
84820;SDS011;75463;50.988;11.332;2024-01-30T10:58:53;5.82;;;4.72;;
84820;SDS011;75463;50.988;11.332;2024-01-30T11:01:19;7.85;;;4.75;;
84820;SDS011;75463;50.988;11.332;2024-01-30T11:03:48;5.55;;;4.60;;
84820;SDS011;75463;50.988;11.332;2024-01-30T11:06:17;7.35;;;5.28;;
84820;SDS011;75463;50.988;11.332;2024-01-30T11:08:45;9.82;;;5.15;;
84820;SDS011;75463;50.988;11.332;2024-01-30T11:11:11;6.75;;;4.97;;
84820;SDS011;75463;50.988;11.332;2024-01-30T11:13:36;10.05;;;5.32;;
84820;SDS011;75463;50.988;11.332;2024-01-30T11:16:02;9.95;;;5.03;;
84820;SDS011;75463;50.988;11.332;2024-01-30T11:18:31;5.75;;;4.38;;
84820;SDS011;75463;50.988;11.332;2024-01-30T11:21:00;7.82;;;4.40;;
84820;SDS011;75463;50.988;11.332;2024-01-30T11:23:27;7.10;;;4.45;;
84820;SDS011;75463;50.988;11.332;2024-01-30T11:25:53;8.65;;;5.10;;
84820;SDS011;75463;50.988;11.332;2024-01-30T11:28:22;6.78;;;4.13;;
84820;SDS011;75463;50.988;11.332;2024-01-30T11:30:48;5.50;;;4.22;;
84820;SDS011;75463;50.988;11.332;2024-01-30T11:33:15;6.68;;;4.40;;
84820;SDS011;75463;50.988;11.332;2024-01-30T11:35:56;6.72;;;4.00;;
84820;SDS011;75463;50.988;11.332;2024-01-30T11:38:22;7.38;;;4.20;;
84820;SDS011;75463;50.988;11.332;2024-01-30T11:40:50;11.25;;;4.90;;
84820;SDS011;75463;50.988;11.332;2024-01-30T11:43:16;4.10;;;3.70;;
84820;SDS011;75463;50.988;11.332;2024-01-30T11:45:42;7.78;;;4.65;;
84820;SDS011;75463;50.988;11.332;2024-01-30T11:48:09;5.30;;;4.07;;
84820;SDS011;75463;50.988;11.332;2024-01-30T11:50:37;7.53;;;3.63;;
84820;SDS011;75463;50.988;11.332;2024-01-30T11:53:04;8.35;;;4.20;;
84820;SDS011;75463;50.988;11.332;2024-01-30T11:55:29;5.68;;;4.38;;
84820;SDS011;75463;50.988;11.332;2024-01-30T11:57:56;8.68;;;4.20;;
84820;SDS011;75463;50.988;11.332;2024-01-30T12:00:22;7.10;;;4.60;;
84820;SDS011;75463;50.988;11.332;2024-01-30T12:02:54;7.38;;;4.25;;
84820;SDS011;75463;50.988;11.332;2024-01-30T12:05:27;6.00;;;4.25;;
84820;SDS011;75463;50.988;11.332;2024-01-30T12:07:53;7.68;;;4.25;;
84820;SDS011;75463;50.988;11.332;2024-01-30T12:10:18;6.55;;;3.60;;
84820;SDS011;75463;50.988;11.332;2024-01-30T12:12:47;7.25;;;4.72;;
84820;SDS011;75463;50.988;11.332;2024-01-30T12:15:15;7.75;;;4.88;;
84820;SDS011;75463;50.988;11.332;2024-01-30T12:17:41;8.25;;;4.55;;
84820;SDS011;75463;50.988;11.332;2024-01-30T12:20:10;11.88;;;5.70;;
84820;SDS011;75463;50.988;11.332;2024-01-30T12:22:38;7.20;;;5.32;;
84820;SDS011;75463;50.988;11.332;2024-01-30T12:25:07;6.57;;;5.45;;
84820;SDS011;75463;50.988;11.332;2024-01-30T12:27:33;6.80;;;4.93;;
84820;SDS011;75463;50.988;11.332;2024-01-30T12:29:58;8.95;;;5.53;;
84820;SDS011;75463;50.988;11.332;2024-01-30T12:32:24;8.18;;;5.65;;
84820;SDS011;75463;50.988;11.332;2024-01-30T12:34:49;8.50;;;6.25;;
84820;SDS011;75463;50.988;11.332;2024-01-30T12:37:15;8.30;;;6.55;;
84820;SDS011;75463;50.988;11.332;2024-01-30T12:39:44;9.27;;;6.03;;
84820;SDS011;75463;50.988;11.332;2024-01-30T12:42:10;9.40;;;6.70;;
84820;SDS011;75463;50.988;11.332;2024-01-30T12:44:36;12.38;;;6.22;;
84820;SDS011;75463;50.988;11.332;2024-01-30T12:47:04;12.13;;;6.45;;
84820;SDS011;75463;50.988;11.332;2024-01-30T12:49:30;9.23;;;6.55;;
84820;SDS011;75463;50.988;11.332;2024-01-30T12:51:55;8.60;;;7.03;;
84820;SDS011;75463;50.988;11.332;2024-01-30T12:54:22;10.38;;;6.90;;
84820;SDS011;75463;50.988;11.332;2024-01-30T12:56:48;8.63;;;6.13;;
84820;SDS011;75463;50.988;11.332;2024-01-30T12:59:13;8.50;;;6.38;;
84820;SDS011;75463;50.988;11.332;2024-01-30T13:01:38;11.70;;;6.93;;
84820;SDS011;75463;50.988;11.332;2024-01-30T13:04:04;8.77;;;7.15;;
84820;SDS011;75463;50.988;11.332;2024-01-30T13:06:29;10.75;;;6.43;;
84820;SDS011;75463;50.988;11.332;2024-01-30T13:08:54;9.40;;;7.00;;
84820;SDS011;75463;50.988;11.332;2024-01-30T13:11:20;9.50;;;7.20;;
84820;SDS011;75463;50.988;11.332;2024-01-30T13:13:45;10.07;;;7.13;;
84820;SDS011;75463;50.988;11.332;2024-01-30T13:16:10;10.27;;;8.07;;
84820;SDS011;75463;50.988;11.332;2024-01-30T13:18:36;11.75;;;8.73;;
84820;SDS011;75463;50.988;11.332;2024-01-30T13:21:01;13.23;;;8.07;;
84820;SDS011;75463;50.988;11.332;2024-01-30T13:23:27;11.27;;;8.00;;
84820;SDS011;75463;50.988;11.332;2024-01-30T13:25:53;9.80;;;7.55;;
84820;SDS011;75463;50.988;11.332;2024-01-30T13:28:21;10.98;;;7.30;;
84820;SDS011;75463;50.988;11.332;2024-01-30T13:30:46;10.63;;;6.80;;
84820;SDS011;75463;50.988;11.332;2024-01-30T13:33:12;13.53;;;8.07;;
84820;SDS011;75463;50.988;11.332;2024-01-30T13:35:37;11.73;;;7.50;;
84820;SDS011;75463;50.988;11.332;2024-01-30T13:38:03;13.82;;;8.68;;
84820;SDS011;75463;50.988;11.332;2024-01-30T13:40:28;12.60;;;7.68;;
84820;SDS011;75463;50.988;11.332;2024-01-30T13:42:54;10.13;;;7.27;;
84820;SDS011;75463;50.988;11.332;2024-01-30T13:45:19;9.63;;;7.07;;
84820;SDS011;75463;50.988;11.332;2024-01-30T13:47:44;8.40;;;6.97;;
84820;SDS011;75463;50.988;11.332;2024-01-30T13:50:10;11.33;;;7.47;;
84820;SDS011;75463;50.988;11.332;2024-01-30T13:52:40;12.13;;;7.80;;
84820;SDS011;75463;50.988;11.332;2024-01-30T13:55:05;10.30;;;6.85;;
84820;SDS011;75463;50.988;11.332;2024-01-30T13:57:30;10.03;;;6.93;;
84820;SDS011;75463;50.988;11.332;2024-01-30T13:59:59;10.88;;;7.20;;
84820;SDS011;75463;50.988;11.332;2024-01-30T14:02:25;9.80;;;7.25;;
84820;SDS011;75463;50.988;11.332;2024-01-30T14:04:50;9.60;;;6.55;;
84820;SDS011;75463;50.988;11.332;2024-01-30T14:07:15;15.50;;;7.83;;
84820;SDS011;75463;50.988;11.332;2024-01-30T14:09:43;13.55;;;8.13;;
84820;SDS011;75463;50.988;11.332;2024-01-30T14:12:08;19.85;;;8.40;;
84820;SDS011;75463;50.988;11.332;2024-01-30T14:14:34;14.30;;;6.38;;
84820;SDS011;75463;50.988;11.332;2024-01-30T14:16:59;11.73;;;5.13;;
84820;SDS011;75463;50.988;11.332;2024-01-30T14:19:25;7.70;;;4.78;;
84820;SDS011;75463;50.988;11.332;2024-01-30T14:21:50;7.65;;;4.15;;
84820;SDS011;75463;50.988;11.332;2024-01-30T14:24:15;11.93;;;4.28;;
84820;SDS011;75463;50.988;11.332;2024-01-30T14:26:40;6.50;;;3.80;;